createdAt,value
2023-05-21T00:07:12.836Z,12.95
2023-05-21T00:09:42.686Z,12.83
2023-05-21T00:12:12.744Z,12.77
2023-05-21T00:14:42.641Z,12.78
2023-05-21T00:17:12.513Z,12.78
2023-05-21T00:19:42.861Z,12.70
2023-05-21T00:22:16.197Z,12.76
2023-05-21T00:24:46.246Z,12.73
2023-05-21T00:27:16.269Z,12.72
2023-05-21T00:29:46.666Z,12.76
2023-05-21T00:32:16.540Z,12.66
2023-05-21T00:34:46.412Z,12.61
2023-05-21T00:37:19.046Z,12.51
2023-05-21T00:39:49.053Z,12.56
2023-05-21T00:42:19.370Z,12.46
2023-05-21T00:44:49.269Z,12.38
2023-05-21T00:47:21.780Z,12.38
2023-05-21T00:49:52.106Z,12.27
2023-05-21T00:52:27.233Z,12.33
2023-05-21T00:54:57.273Z,12.32
2023-05-21T00:57:28.756Z,12.25
2023-05-21T00:59:58.705Z,12.25
2023-05-21T01:02:28.762Z,12.23
2023-05-21T01:05:00.564Z,12.23
2023-05-21T01:07:35.131Z,12.17
2023-05-21T01:10:06.746Z,12.22
2023-05-21T01:12:37.729Z,12.19
2023-05-21T01:15:11.974Z,12.13
2023-05-21T01:17:42.421Z,12.00
2023-05-21T01:20:13.805Z,11.94
2023-05-21T01:22:52.734Z,11.99
2023-05-21T01:25:23.081Z,11.90
2023-05-21T01:27:53.455Z,11.87
2023-05-21T01:30:24.725Z,11.85
2023-05-21T01:33:00.110Z,11.85
2023-05-21T01:35:32.897Z,11.86
2023-05-21T01:38:08.525Z,11.88
2023-05-21T01:40:42.286Z,11.89
2023-05-21T01:43:12.576Z,11.86
2023-05-21T01:45:43.870Z,11.86
2023-05-21T01:48:15.274Z,12.00
2023-05-21T01:50:47.113Z,12.04
2023-05-21T01:53:19.794Z,11.95
2023-05-21T01:55:49.841Z,11.95
2023-05-21T01:58:21.396Z,11.88
2023-05-21T02:00:52.194Z,11.87
2023-05-21T02:03:23.335Z,11.90
2023-05-21T02:05:53.348Z,11.89
2023-05-21T02:08:27.481Z,11.92
2023-05-21T02:10:58.119Z,11.96
2023-05-21T02:13:29.357Z,11.95
2023-05-21T02:15:59.313Z,11.90
2023-05-21T02:18:29.504Z,11.93
2023-05-21T02:20:59.882Z,11.98
2023-05-21T02:23:32.315Z,11.96
2023-05-21T02:26:02.415Z,11.84
2023-05-21T02:28:32.908Z,11.81
2023-05-21T02:31:02.707Z,11.75
2023-05-21T02:33:32.480Z,11.72
2023-05-21T02:36:02.284Z,11.68
2023-05-21T02:38:34.631Z,11.73
2023-05-21T02:41:04.456Z,11.70
2023-05-21T02:43:34.712Z,11.65
2023-05-21T02:46:04.510Z,11.61
2023-05-21T02:48:34.351Z,11.58
2023-05-21T02:51:04.308Z,11.59
2023-05-21T02:53:36.902Z,11.59
2023-05-21T02:56:07.351Z,11.59
2023-05-21T02:58:37.178Z,11.54
2023-05-21T03:01:07.224Z,11.49
2023-05-21T03:03:37.189Z,11.57
2023-05-21T03:06:10.316Z,11.64
2023-05-21T03:08:42.844Z,11.61
2023-05-21T03:11:12.811Z,11.65
2023-05-21T03:13:42.901Z,11.57
2023-05-21T03:16:12.895Z,11.52
2023-05-21T03:18:43.503Z,11.54
2023-05-21T03:21:15.602Z,11.56
2023-05-21T03:23:48.097Z,11.53
2023-05-21T03:26:18.167Z,11.57
2023-05-21T03:28:48.134Z,11.57
2023-05-21T03:31:18.427Z,11.56
2023-05-21T03:33:53.964Z,11.51
2023-05-21T03:36:27.478Z,11.51
2023-05-21T03:39:01.904Z,11.53
2023-05-21T03:41:33.949Z,11.54
2023-05-21T03:44:10.985Z,11.58
2023-05-21T03:46:50.766Z,11.55
2023-05-21T03:49:26.540Z,11.59
2023-05-21T03:51:58.971Z,11.57
2023-05-21T03:54:32.093Z,11.57
2023-05-21T03:57:06.424Z,11.60
2023-05-21T03:59:36.708Z,11.60
2023-05-21T04:02:08.158Z,11.60
2023-05-21T04:04:38.116Z,11.67
2023-05-21T04:07:15.543Z,11.69
2023-05-21T04:09:48.041Z,11.73
2023-05-21T04:12:19.298Z,11.75
2023-05-21T04:14:49.349Z,11.72
2023-05-21T04:17:19.429Z,11.70
2023-05-21T04:19:49.681Z,11.67
2023-05-21T04:22:23.631Z,11.73
2023-05-21T04:25:06.750Z,11.78
2023-05-21T04:27:42.922Z,11.83
2023-05-21T04:30:13.958Z,11.86
2023-05-21T04:32:48.453Z,11.87
2023-05-21T04:35:18.574Z,11.97
2023-05-21T04:38:12.814Z,11.96
2023-05-21T04:40:45.393Z,11.95
2023-05-21T04:43:17.427Z,11.98
2023-05-21T04:45:48.054Z,12.00
2023-05-21T04:48:18.055Z,12.05
2023-05-21T04:50:48.030Z,12.05
2023-05-21T04:53:22.145Z,12.05
2023-05-21T04:55:54.771Z,12.12
2023-05-21T04:58:24.742Z,12.21
2023-05-21T05:00:54.728Z,12.26
2023-05-21T05:03:27.420Z,12.24
2023-05-21T05:05:57.434Z,12.30
2023-05-21T05:08:27.320Z,12.36
2023-05-21T05:11:02.469Z,12.42
2023-05-21T05:13:35.576Z,12.48
2023-05-21T05:16:06.327Z,12.55
2023-05-21T05:18:36.622Z,12.57
2023-05-21T05:21:06.818Z,12.67
2023-05-21T05:23:37.305Z,12.73
2023-05-21T05:26:09.900Z,12.81
2023-05-21T05:28:46.157Z,12.81
2023-05-21T05:31:22.209Z,12.87
2023-05-21T05:33:52.349Z,12.93
2023-05-21T05:36:22.733Z,12.96
2023-05-21T05:38:52.860Z,12.99
2023-05-21T05:41:35.824Z,13.09
2023-05-21T05:44:10.807Z,13.15
2023-05-21T05:46:42.640Z,13.12
2023-05-21T05:49:13.829Z,13.12
2023-05-21T05:51:43.567Z,13.16
2023-05-21T05:54:13.584Z,13.19
2023-05-21T05:56:48.980Z,13.23
2023-05-21T05:59:35.841Z,13.29
2023-05-21T06:02:06.271Z,13.37
2023-05-21T06:04:47.854Z,13.37
2023-05-21T06:07:25.723Z,13.46
2023-05-21T06:10:07.425Z,13.53
2023-05-21T06:12:51.770Z,13.58
2023-05-21T06:15:21.798Z,13.66
2023-05-21T06:17:51.696Z,13.71
2023-05-21T06:20:21.609Z,13.68
2023-05-21T06:22:51.438Z,13.70
2023-05-21T06:25:21.233Z,13.83
2023-05-21T06:27:53.584Z,13.88
2023-05-21T06:30:27.821Z,13.95
2023-05-21T06:32:57.736Z,14.08
2023-05-21T06:35:28.566Z,14.10
2023-05-21T06:37:58.332Z,14.11
2023-05-21T06:40:28.269Z,14.13
2023-05-21T06:43:05.002Z,14.18
2023-05-21T06:45:35.022Z,14.30
2023-05-21T06:48:21.392Z,14.46
2023-05-21T06:50:51.579Z,14.57
2023-05-21T06:53:21.833Z,14.64
2023-05-21T06:55:53.986Z,14.69
2023-05-21T06:58:33.815Z,14.77
2023-05-21T07:01:04.057Z,14.91
2023-05-21T07:03:34.391Z,14.91
2023-05-21T07:06:04.732Z,15.14
2023-05-21T07:08:34.584Z,15.21
2023-05-21T07:11:05.058Z,15.15
2023-05-21T07:13:38.083Z,15.25
2023-05-21T07:16:08.459Z,15.36
2023-05-21T07:18:39.534Z,15.50
2023-05-21T07:21:09.568Z,15.62
2023-05-21T07:23:40.659Z,15.70
2023-05-21T07:26:12.661Z,15.90
2023-05-21T07:28:45.348Z,15.92
2023-05-21T07:31:16.055Z,16.03
2023-05-21T07:33:50.101Z,16.08
2023-05-21T07:36:21.993Z,16.10
2023-05-21T07:38:51.848Z,16.25
2023-05-21T07:41:22.222Z,16.35
2023-05-21T07:43:55.994Z,16.39
2023-05-21T07:46:26.022Z,16.46
2023-05-21T07:48:58.669Z,16.67
2023-05-21T07:51:29.033Z,16.50
2023-05-21T07:54:00.287Z,16.57
2023-05-21T07:56:35.722Z,16.72
2023-05-21T07:59:08.865Z,16.87
2023-05-21T08:01:41.375Z,16.90
2023-05-21T08:04:11.958Z,17.02
2023-05-21T08:06:42.299Z,17.08
2023-05-21T08:09:23.057Z,17.18
2023-05-21T08:12:04.818Z,17.23
2023-05-21T08:17:43.117Z,17.23
2023-05-21T08:20:15.443Z,17.33
2023-05-21T08:22:48.600Z,17.46
2023-05-21T08:25:19.932Z,17.64
2023-05-21T08:27:51.665Z,17.79
2023-05-21T08:30:25.364Z,17.92
2023-05-21T08:32:55.517Z,18.08
2023-05-21T08:35:26.087Z,18.20
2023-05-21T08:38:14.289Z,18.35
2023-05-21T08:41:07.916Z,18.61
2023-05-21T08:43:39.747Z,18.74
2023-05-21T08:46:12.823Z,18.98
2023-05-21T08:48:43.859Z,19.13
2023-05-21T08:51:13.839Z,19.28
2023-05-21T08:53:52.253Z,19.41
2023-05-21T08:56:24.958Z,19.49
2023-05-21T08:58:57.834Z,19.67
2023-05-21T09:01:35.112Z,19.76
2023-05-21T09:04:21.904Z,19.83
2023-05-21T09:06:58.360Z,20.00
2023-05-21T09:09:52.553Z,20.22
2023-05-21T09:12:22.716Z,20.19
2023-05-21T09:14:52.721Z,20.26
2023-05-21T09:17:30.698Z,20.43
2023-05-21T09:20:14.984Z,20.67
2023-05-21T09:22:58.360Z,20.75
2023-05-21T09:25:29.935Z,20.84
2023-05-21T09:28:04.233Z,20.69
2023-05-21T09:30:36.158Z,20.58
2023-05-21T09:33:09.186Z,20.70
2023-05-21T09:35:39.318Z,20.66
2023-05-21T09:38:11.914Z,20.66
2023-05-21T09:40:46.890Z,20.73
2023-05-21T09:43:18.987Z,20.85
2023-05-21T09:46:01.323Z,20.86
2023-05-21T09:48:42.373Z,21.00
2023-05-21T09:51:17.513Z,21.12
2023-05-21T09:53:51.762Z,21.16
2023-05-21T09:56:26.324Z,21.24
2023-05-21T09:58:57.539Z,21.28
2023-05-21T10:01:28.319Z,21.24
2023-05-21T10:04:02.447Z,21.36
2023-05-21T10:06:34.607Z,21.35
2023-05-21T10:09:12.447Z,21.74
2023-05-21T10:11:43.339Z,21.91
2023-05-21T10:14:17.989Z,22.16
2023-05-21T10:16:48.443Z,22.46
2023-05-21T10:19:22.690Z,22.61
2023-05-21T10:21:53.297Z,22.59
2023-05-21T10:24:23.696Z,22.81
2023-05-21T10:26:54.459Z,23.02
2023-05-21T10:29:25.963Z,23.12
2023-05-21T10:31:56.235Z,23.40
2023-05-21T10:34:28.916Z,23.66
2023-05-21T10:36:59.299Z,23.69
2023-05-21T10:39:28.967Z,23.75
2023-05-21T10:42:19.801Z,23.62
2023-05-21T10:45:00.464Z,23.69
2023-05-21T10:47:43.700Z,23.78
2023-05-21T10:50:31.941Z,23.83
2023-05-21T10:53:10.672Z,23.86
2023-05-21T10:55:50.523Z,23.62
2023-05-21T10:58:44.947Z,23.71
2023-05-21T11:01:15.533Z,23.82
2023-05-21T11:03:45.725Z,23.72
2023-05-21T11:06:19.060Z,23.62
2023-05-21T11:08:53.152Z,23.70
2023-05-21T11:11:45.268Z,23.66
2023-05-21T11:14:35.985Z,23.58
2023-05-21T11:17:07.109Z,23.58
2023-05-21T11:19:42.038Z,23.50
2023-05-21T11:22:24.799Z,23.59
2023-05-21T11:24:55.451Z,23.56
2023-05-21T11:27:38.955Z,23.33
2023-05-21T11:30:10.533Z,23.45
2023-05-21T11:32:41.728Z,23.44
2023-05-21T11:35:11.885Z,23.42
2023-05-21T11:37:46.752Z,23.38
2023-05-21T11:40:26.285Z,23.33
2023-05-21T11:42:57.654Z,23.37
2023-05-21T11:45:32.012Z,23.37
2023-05-21T11:48:02.095Z,23.42
2023-05-21T11:50:34.324Z,23.43
2023-05-21T11:53:07.860Z,23.40
2023-05-21T11:55:43.888Z,23.44
2023-05-21T11:58:19.441Z,23.49
2023-05-21T12:00:49.446Z,23.52
2023-05-21T12:03:20.759Z,23.58
2023-05-21T12:05:52.623Z,23.51
2023-05-21T12:08:28.291Z,23.51
2023-05-21T12:11:02.089Z,23.54
2023-05-21T12:13:32.363Z,23.57
2023-05-21T12:16:03.398Z,23.53
2023-05-21T12:18:34.597Z,23.45
2023-05-21T12:21:04.600Z,23.52
2023-05-21T12:23:37.194Z,23.49
2023-05-21T12:26:08.328Z,23.52
2023-05-21T12:28:38.199Z,23.55
2023-05-21T12:31:08.338Z,23.49
2023-05-21T12:33:38.214Z,23.58
2023-05-21T12:36:08.748Z,23.52
2023-05-21T12:38:41.994Z,23.61
2023-05-21T12:41:11.959Z,23.76
2023-05-21T12:43:41.977Z,23.77
2023-05-21T12:46:15.090Z,23.79
2023-05-21T12:48:45.508Z,23.87
2023-05-21T12:51:15.434Z,23.99
2023-05-21T12:53:48.083Z,24.23
2023-05-21T12:56:18.935Z,24.31
2023-05-21T12:58:53.188Z,24.39
2023-05-21T13:01:24.839Z,24.38
2023-05-21T13:03:54.832Z,24.45
2023-05-21T13:06:26.572Z,24.57
2023-05-21T13:08:58.982Z,24.61
2023-05-21T13:11:29.065Z,24.62
2023-05-21T13:13:59.634Z,24.63
2023-05-21T13:16:29.359Z,24.73
2023-05-21T13:18:59.294Z,24.69
2023-05-21T13:21:29.446Z,24.68
2023-05-21T13:24:02.020Z,24.77
2023-05-21T13:26:32.066Z,24.76
2023-05-21T13:29:01.984Z,24.79
2023-05-21T13:31:32.201Z,24.80
2023-05-21T13:34:02.410Z,24.78
2023-05-21T13:36:34.227Z,24.76
2023-05-21T13:39:07.119Z,24.82
2023-05-21T13:41:37.053Z,24.91
2023-05-21T13:44:07.128Z,24.96
2023-05-21T13:46:39.610Z,25.01
2023-05-21T13:49:10.088Z,24.92
2023-05-21T13:51:40.093Z,24.90
2023-05-21T13:54:14.300Z,24.89
2023-05-21T13:56:44.341Z,24.87
2023-05-21T13:59:14.514Z,24.90
2023-05-21T14:01:44.817Z,24.94
2023-05-21T14:04:14.883Z,24.82
2023-05-21T14:06:44.884Z,24.91
2023-05-21T14:09:17.544Z,25.04
2023-05-21T14:11:47.468Z,25.04
2023-05-21T14:14:19.235Z,25.04
2023-05-21T14:16:49.814Z,25.06
2023-05-21T14:19:20.002Z,25.08
2023-05-21T14:21:50.012Z,25.17
2023-05-21T14:24:22.603Z,25.23
2023-05-21T14:26:52.436Z,25.25
2023-05-21T14:29:22.433Z,25.21
2023-05-21T14:31:52.525Z,25.16
2023-05-21T14:34:22.211Z,25.19
2023-05-21T14:36:52.286Z,25.25
2023-05-21T14:39:24.750Z,25.15
2023-05-21T14:41:54.779Z,25.32
2023-05-21T14:44:24.872Z,25.29
2023-05-21T14:46:54.772Z,25.30
2023-05-21T14:49:24.612Z,25.34
2023-05-21T14:51:54.330Z,25.41
2023-05-21T14:54:26.878Z,25.48
2023-05-21T14:56:56.929Z,25.54
2023-05-21T14:59:26.783Z,25.52
2023-05-21T15:01:56.869Z,25.60
2023-05-21T15:04:26.964Z,25.61
2023-05-21T15:06:56.848Z,25.50
2023-05-21T15:09:29.307Z,25.52
2023-05-21T15:11:59.221Z,25.59
2023-05-21T15:14:29.147Z,25.49
2023-05-21T15:16:59.037Z,25.40
2023-05-21T15:19:29.021Z,25.38
2023-05-21T15:21:59.070Z,25.40
2023-05-21T15:24:31.440Z,25.39
2023-05-21T15:27:01.298Z,25.41
2023-05-21T15:29:31.202Z,25.36
2023-05-21T15:32:05.199Z,25.34
2023-05-21T15:34:35.076Z,25.32
2023-05-21T15:37:05.374Z,25.40
2023-05-21T15:39:37.839Z,25.32
2023-05-21T15:42:08.079Z,25.25
2023-05-21T15:44:37.692Z,25.19
2023-05-21T15:47:08.365Z,25.29
2023-05-21T15:49:38.500Z,25.17
2023-05-21T15:52:09.446Z,25.25
2023-05-21T15:54:41.989Z,25.23
2023-05-21T15:57:11.791Z,25.16
2023-05-21T15:59:41.613Z,25.24
2023-05-21T16:02:11.799Z,25.19
2023-05-21T16:04:41.683Z,25.13
2023-05-21T16:07:11.571Z,25.08
2023-05-21T16:09:44.704Z,25.06
2023-05-21T16:12:14.663Z,25.05
2023-05-21T16:14:44.812Z,25.03
2023-05-21T16:17:14.733Z,24.96
2023-05-21T16:19:44.584Z,24.97
2023-05-21T16:22:14.538Z,24.97
2023-05-21T16:24:46.943Z,24.89
2023-05-21T16:27:16.802Z,24.87
2023-05-21T16:29:47.222Z,24.78
2023-05-21T16:32:17.221Z,24.76
2023-05-21T16:34:47.271Z,24.75
2023-05-21T16:37:17.204Z,24.67
2023-05-21T16:39:49.579Z,24.63
2023-05-21T16:42:19.614Z,24.59
2023-05-21T16:44:49.532Z,24.62
2023-05-21T16:47:19.359Z,24.61
2023-05-21T16:49:49.253Z,24.62
2023-05-21T16:52:19.116Z,24.57
2023-05-21T16:54:51.577Z,24.61
2023-05-21T16:57:21.360Z,24.59
2023-05-21T16:59:51.223Z,24.60
2023-05-21T17:02:21.135Z,24.62
2023-05-21T17:04:51.097Z,24.60
2023-05-21T17:07:20.877Z,24.61
2023-05-21T17:09:53.268Z,24.54
2023-05-21T17:12:23.160Z,24.46
2023-05-21T17:14:52.964Z,24.39
2023-05-21T17:17:22.807Z,24.36
2023-05-21T17:19:52.632Z,24.31
2023-05-21T17:22:22.508Z,24.24
2023-05-21T17:24:54.992Z,24.19
2023-05-21T17:27:24.844Z,24.19
2023-05-21T17:29:54.645Z,24.17
2023-05-21T17:32:24.521Z,24.15
2023-05-21T17:34:54.317Z,24.16
2023-05-21T17:37:24.613Z,24.13
2023-05-21T17:39:57.806Z,24.15
2023-05-21T17:42:27.607Z,24.13
2023-05-21T17:44:57.440Z,24.08
2023-05-21T17:47:27.285Z,23.95
2023-05-21T17:49:57.149Z,23.88
2023-05-21T17:52:27.150Z,23.83
2023-05-21T17:54:59.557Z,23.77
2023-05-21T17:57:29.305Z,23.64
2023-05-21T17:59:59.076Z,23.58
2023-05-21T18:02:28.924Z,23.54
2023-05-21T18:04:58.698Z,23.48
2023-05-21T18:07:28.493Z,23.44
2023-05-21T18:10:00.844Z,23.38
2023-05-21T18:12:30.705Z,23.28
2023-05-21T18:15:01.960Z,23.20
2023-05-21T18:17:31.776Z,23.14
2023-05-21T18:20:01.554Z,23.05
2023-05-21T18:22:31.330Z,22.98
2023-05-21T18:25:03.918Z,22.94
2023-05-21T18:27:33.699Z,22.92
2023-05-21T18:30:06.482Z,22.92
2023-05-21T18:32:38.945Z,22.84
2023-05-21T18:35:10.935Z,22.80
2023-05-21T18:37:43.106Z,22.75
2023-05-21T18:40:17.608Z,22.69
2023-05-21T18:42:47.453Z,22.60
2023-05-21T18:45:17.870Z,22.54
2023-05-21T18:47:47.704Z,22.46
2023-05-21T18:50:19.235Z,22.36
2023-05-21T18:52:49.422Z,22.31
2023-05-21T18:55:22.867Z,22.27
2023-05-21T18:57:52.716Z,22.25
2023-05-21T19:00:22.952Z,22.22
2023-05-21T19:02:52.839Z,22.17
2023-05-21T19:05:22.783Z,22.13
2023-05-21T19:07:52.651Z,22.05
2023-05-21T19:10:25.190Z,22.00
2023-05-21T19:12:55.005Z,21.95
2023-05-21T19:15:24.826Z,21.90
2023-05-21T19:17:54.801Z,21.86
2023-05-21T19:20:28.156Z,21.85
2023-05-21T19:22:58.156Z,21.78
2023-05-21T19:25:31.657Z,21.72
2023-05-21T19:28:01.543Z,21.65
2023-05-21T19:30:33.709Z,21.59
2023-05-21T19:33:03.625Z,21.53
2023-05-21T19:35:33.439Z,21.52
2023-05-21T19:38:05.316Z,21.49
2023-05-21T19:40:38.384Z,21.44
2023-05-21T19:43:08.339Z,21.41
2023-05-21T19:45:38.175Z,21.39
2023-05-21T19:48:09.036Z,21.30
2023-05-21T19:50:39.103Z,21.30
2023-05-21T19:53:09.013Z,21.28
2023-05-21T19:55:41.747Z,21.21
2023-05-21T19:58:13.587Z,21.19
2023-05-21T20:00:47.542Z,21.21
2023-05-21T20:03:17.352Z,21.12
2023-05-21T20:05:47.124Z,21.07
2023-05-21T20:08:17.468Z,21.01
2023-05-21T20:10:51.710Z,20.95
2023-05-21T20:13:21.833Z,20.88
2023-05-21T20:15:51.666Z,20.86
2023-05-21T20:18:22.570Z,20.87
2023-05-21T20:20:52.403Z,20.83
2023-05-21T20:23:22.178Z,20.83
2023-05-21T20:25:54.713Z,20.85
2023-05-21T20:28:24.842Z,20.82
2023-05-21T20:30:57.783Z,20.74
2023-05-21T20:33:28.096Z,20.69
2023-05-21T20:35:57.860Z,20.74
2023-05-21T20:38:28.173Z,20.78
2023-05-21T20:41:00.633Z,20.74
2023-05-21T20:43:30.908Z,20.75
2023-05-21T20:46:02.490Z,20.78
2023-05-21T20:48:32.769Z,20.81
2023-05-21T20:51:03.453Z,20.82
2023-05-21T20:53:33.891Z,20.85
2023-05-21T20:56:08.337Z,20.82
2023-05-21T20:58:40.106Z,20.83
2023-05-21T21:01:10.916Z,20.82
2023-05-21T21:03:41.582Z,20.82
2023-05-21T21:06:11.450Z,20.84
2023-05-21T21:08:41.326Z,20.84
2023-05-21T21:11:13.849Z,20.89
2023-05-21T21:13:43.980Z,20.88
2023-05-21T21:16:14.353Z,20.92
2023-05-21T22:54:45.409Z,20.34
2023-05-21T22:57:15.469Z,20.29
2023-05-21T22:59:45.617Z,20.24
2023-05-21T23:02:17.087Z,20.26
2023-05-21T23:04:48.559Z,20.23
2023-05-21T23:07:19.129Z,20.22
2023-05-21T23:09:51.980Z,20.16
2023-05-21T23:12:22.047Z,20.15
2023-05-21T23:14:52.017Z,20.13
2023-05-21T23:17:22.248Z,20.05
2023-05-21T23:19:52.812Z,20.07
2023-05-21T23:22:22.949Z,20.03
2023-05-21T23:24:55.718Z,20.01
2023-05-21T23:27:25.808Z,19.99
2023-05-21T23:29:55.977Z,20.00
2023-05-21T23:32:26.298Z,19.96
2023-05-21T23:34:57.163Z,19.93
2023-05-21T23:37:27.204Z,19.87
2023-05-21T23:39:59.793Z,19.82
2023-05-21T23:42:29.867Z,19.75
2023-05-21T23:44:59.822Z,19.80
2023-05-21T23:47:29.897Z,19.77
2023-05-21T23:49:59.909Z,19.69
2023-05-21T23:52:29.761Z,19.72
2023-05-21T23:55:02.270Z,19.70
2023-05-21T23:57:32.313Z,19.66
